createdAt,value
2019-03-25T00:03:16.232Z,29.13
2019-03-25T00:08:37.660Z,23.43
2019-03-25T00:13:57.406Z,18.47
2019-03-25T00:19:19.508Z,21.83
2019-03-25T00:24:39.065Z,21.40
2019-03-25T00:29:54.331Z,18.40
2019-03-25T00:35:10.723Z,17.43
2019-03-25T00:40:28.581Z,19.67
2019-03-25T00:45:46.842Z,19.57
2019-03-25T00:51:07.698Z,15.60
2019-03-25T00:56:24.311Z,20.70
2019-03-25T01:01:41.070Z,21.43
2019-03-25T01:06:57.770Z,22.53
2019-03-25T01:12:14.151Z,22.63
2019-03-25T01:17:30.396Z,23.80
2019-03-25T01:22:46.979Z,22.70
2019-03-25T01:28:03.330Z,21.00
2019-03-25T01:33:19.662Z,28.17
2019-03-25T01:38:36.328Z,18.93
2019-03-25T01:43:53.177Z,23.03
2019-03-25T01:49:09.746Z,20.97
2019-03-25T01:54:26.151Z,23.73
2019-03-25T01:59:42.633Z,19.27
2019-03-25T02:04:59.122Z,18.87
2019-03-25T02:10:16.108Z,16.47
2019-03-25T02:15:32.561Z,16.23
2019-03-25T02:20:49.331Z,12.73
2019-03-25T02:26:06.081Z,14.07
2019-03-25T02:31:23.761Z,12.73
2019-03-25T02:36:40.029Z,10.97
2019-03-25T02:41:56.637Z,8.53
2019-03-25T02:47:13.263Z,11.50
2019-03-25T02:52:29.742Z,11.47
2019-03-25T02:57:46.188Z,11.07
2019-03-25T03:03:03.120Z,9.63
2019-03-25T03:08:20.301Z,12.20
2019-03-25T03:13:37.075Z,20.23
2019-03-25T03:18:53.589Z,15.03
2019-03-25T03:24:10.023Z,11.53
2019-03-25T03:29:26.784Z,11.97
2019-03-25T03:34:43.284Z,10.43
2019-03-25T03:40:00.324Z,13.63
2019-03-25T03:45:18.737Z,10.40
2019-03-25T03:50:35.514Z,10.63
2019-03-25T03:55:52.679Z,9.73
2019-03-25T04:01:08.988Z,10.73
2019-03-25T04:06:25.639Z,7.20
2019-03-25T04:11:41.983Z,10.03
2019-03-25T04:16:58.957Z,6.57
2019-03-25T04:22:15.642Z,13.63
2019-03-25T04:27:32.047Z,10.57
2019-03-25T04:32:48.562Z,6.40
2019-03-25T04:38:05.265Z,7.80
2019-03-25T04:43:21.715Z,8.53
2019-03-25T04:48:38.182Z,8.00
2019-03-25T04:53:54.850Z,9.43
2019-03-25T04:59:11.230Z,9.47
2019-03-25T05:04:27.697Z,14.17
2019-03-25T05:09:49.286Z,8.27
2019-03-25T05:15:18.933Z,8.97
2019-03-25T05:20:41.705Z,8.30
2019-03-25T05:25:59.641Z,8.80
2019-03-25T05:31:16.295Z,9.13
2019-03-25T05:36:32.840Z,8.97
2019-03-25T05:41:48.944Z,9.57
2019-03-25T05:47:05.521Z,7.70
2019-03-25T05:52:21.893Z,7.67
2019-03-25T05:57:38.305Z,13.57
2019-03-25T06:02:55.186Z,13.93
2019-03-25T06:08:12.073Z,15.20
2019-03-25T06:13:28.962Z,14.87
2019-03-25T06:18:45.717Z,19.23
2019-03-25T06:24:02.493Z,16.77
2019-03-25T06:29:19.169Z,14.70
2019-03-25T06:34:35.579Z,12.40
2019-03-25T06:39:51.883Z,9.67
2019-03-25T06:45:10.553Z,16.27
2019-03-25T06:50:27.073Z,10.70
2019-03-25T06:55:43.543Z,12.67
2019-03-25T07:01:00.218Z,11.77
2019-03-25T07:06:16.879Z,13.53
2019-03-25T07:11:32.888Z,12.77
2019-03-25T07:16:49.345Z,13.30
2019-03-25T07:22:05.818Z,14.60
2019-03-25T07:27:22.460Z,16.10
2019-03-25T07:32:38.759Z,8.40
2019-03-25T07:37:55.427Z,12.17
2019-03-25T07:43:12.088Z,9.43
2019-03-25T07:48:28.809Z,272.53
2019-03-25T07:53:45.703Z,210.77
2019-03-25T07:59:01.884Z,143.97
2019-03-25T08:04:18.910Z,120.97
2019-03-25T08:09:35.705Z,73.33
2019-03-25T08:14:52.490Z,62.27
2019-03-25T08:20:09.247Z,47.37
2019-03-25T08:25:26.140Z,33.67
2019-03-25T08:30:42.415Z,27.43
2019-03-25T08:35:59.067Z,26.53
2019-03-25T08:41:15.680Z,19.27
2019-03-25T08:46:32.236Z,16.73
2019-03-25T08:51:49.068Z,13.20
2019-03-25T08:57:05.850Z,13.33
2019-03-25T09:02:22.522Z,7.57
2019-03-25T09:07:38.788Z,8.43
2019-03-25T09:12:55.457Z,10.27
2019-03-25T09:18:11.921Z,5.33
2019-03-25T09:23:28.382Z,3.73
2019-03-25T09:28:46.263Z,3.57
2019-03-25T09:34:02.864Z,6.30
2019-03-25T09:39:19.266Z,4.00
2019-03-25T09:44:35.807Z,4.30
2019-03-25T09:49:53.274Z,7.77
2019-03-25T09:55:11.785Z,5.73
2019-03-25T10:00:33.682Z,3.83
2019-03-25T10:05:50.387Z,4.80
2019-03-25T10:11:06.947Z,4.00
2019-03-25T10:16:23.392Z,1.90
2019-03-25T10:21:39.888Z,2.90
2019-03-25T10:26:56.325Z,3.03
2019-03-25T10:32:12.737Z,2.70
2019-03-25T10:37:29.493Z,3.73
2019-03-25T10:42:48.944Z,3.63
2019-03-25T10:48:06.046Z,3.03
2019-03-25T10:53:22.842Z,3.30
2019-03-25T10:58:39.446Z,2.97
2019-03-25T11:03:56.012Z,3.37
2019-03-25T11:09:12.830Z,3.83
2019-03-25T11:14:35.810Z,2.47
2019-03-25T11:19:52.681Z,5.03
2019-03-25T11:25:10.529Z,6.83
2019-03-25T11:30:53.961Z,8.17
2019-03-25T11:36:12.207Z,3.83
2019-03-25T11:41:29.627Z,3.47
2019-03-25T11:46:46.377Z,3.40
2019-03-25T11:52:03.918Z,7.43
2019-03-25T11:57:20.600Z,4.20
2019-03-25T12:02:37.505Z,5.40
2019-03-25T12:07:54.139Z,3.27
2019-03-25T12:13:10.919Z,2.83
2019-03-25T12:18:28.705Z,4.30
2019-03-25T12:23:45.521Z,5.23
2019-03-25T12:29:01.922Z,5.63
2019-03-25T12:34:21.528Z,3.93
2019-03-25T12:39:38.095Z,4.03
2019-03-25T12:44:54.912Z,2.97
2019-03-25T12:50:11.934Z,3.37
2019-03-25T12:55:28.770Z,3.37
2019-03-25T13:00:46.237Z,2.30
2019-03-25T13:06:02.754Z,2.90
2019-03-25T13:11:19.603Z,3.63
2019-03-25T13:16:36.038Z,3.03
2019-03-25T13:21:52.796Z,7.03
2019-03-25T13:27:09.164Z,2.50
2019-03-25T13:32:25.912Z,5.30
2019-03-25T13:37:42.740Z,5.90
2019-03-25T13:42:59.233Z,8.40
2019-03-25T13:48:15.436Z,4.30
2019-03-25T13:53:32.021Z,7.57
2019-03-25T13:58:48.623Z,4.03
2019-03-25T14:04:05.049Z,2.03
2019-03-25T14:09:22.047Z,3.43
2019-03-25T14:14:38.881Z,2.93
2019-03-25T14:19:55.454Z,2.17
2019-03-25T14:25:12.339Z,2.80
2019-03-25T14:30:29.446Z,2.13
2019-03-25T14:35:46.154Z,1.07
2019-03-25T14:41:02.963Z,4.67
2019-03-25T14:46:19.693Z,2.60
2019-03-25T14:51:37.664Z,5.13
2019-03-25T14:56:54.634Z,4.47
2019-03-25T15:02:12.813Z,3.27
2019-03-25T15:07:32.665Z,2.10
2019-03-25T15:12:49.516Z,1.10
2019-03-25T15:18:15.546Z,2.00
2019-03-25T15:23:27.043Z,1.40
2019-03-25T15:28:44.469Z,1.07
2019-03-25T15:34:01.040Z,0.73
2019-03-25T15:39:17.707Z,1.73
2019-03-25T15:44:34.600Z,1.23
2019-03-25T15:49:54.688Z,1.17
2019-03-25T15:55:13.497Z,0.70
2019-03-25T16:00:30.324Z,1.47
2019-03-25T16:05:48.700Z,1.33
2019-03-25T16:11:05.588Z,1.00
2019-03-25T16:16:23.973Z,3.23
2019-03-25T16:21:40.654Z,0.83
2019-03-25T16:26:57.433Z,1.43
2019-03-25T16:32:16.442Z,3.23
2019-03-25T16:37:34.956Z,2.90
2019-03-25T16:42:53.396Z,1.23
2019-03-25T16:48:09.872Z,0.70
2019-03-25T16:53:28.285Z,1.07
2019-03-25T16:58:47.023Z,1.37
2019-03-25T17:04:03.995Z,1.20
2019-03-25T17:09:20.719Z,0.80
2019-03-25T17:14:37.453Z,0.60
2019-03-25T17:19:54.283Z,0.93
2019-03-25T17:25:13.912Z,0.67
2019-03-25T17:30:30.753Z,1.80
2019-03-25T17:35:47.630Z,0.67
2019-03-25T17:41:04.516Z,0.60
2019-03-25T17:46:21.078Z,0.77
2019-03-25T17:51:38.212Z,1.40
2019-03-25T17:56:54.925Z,2.20
2019-03-25T18:02:11.400Z,1.77
2019-03-25T18:07:37.128Z,2.07
2019-03-25T18:12:57.136Z,1.60
2019-03-25T18:18:16.486Z,2.00
2019-03-25T18:23:32.726Z,3.00
2019-03-25T18:28:49.690Z,2.63
2019-03-25T18:34:06.490Z,2.03
2019-03-25T18:39:22.917Z,2.30
2019-03-25T18:44:40.157Z,1.50
2019-03-25T18:49:56.680Z,1.67
2019-03-25T19:00:50.217Z,2.00
2019-03-25T19:06:07.465Z,3.57
2019-03-25T19:11:31.429Z,1.67
2019-03-25T19:16:52.390Z,1.27
2019-03-25T19:22:09.538Z,2.30
2019-03-25T19:27:26.338Z,1.33
2019-03-25T19:32:42.834Z,2.93
2019-03-25T19:38:01.479Z,2.03
2019-03-25T19:43:20.302Z,1.53
2019-03-25T19:48:37.832Z,2.53
2019-03-25T19:53:59.994Z,3.80
2019-03-25T19:59:17.910Z,4.47
2019-03-25T20:04:46.750Z,3.93
2019-03-25T20:15:45.606Z,5.80
2019-03-25T20:21:00.004Z,7.90
2019-03-25T20:26:22.416Z,4.57
2019-03-25T20:31:42.211Z,3.90
2019-03-25T20:36:59.232Z,5.40
2019-03-25T20:42:16.397Z,4.13
2019-03-25T20:47:34.717Z,5.43
2019-03-25T20:52:55.453Z,5.93
2019-03-25T20:58:12.436Z,5.67
2019-03-25T21:03:29.333Z,6.27
2019-03-25T21:08:46.370Z,4.43
2019-03-25T21:14:03.347Z,5.37
2019-03-25T21:19:30.194Z,3.90
2019-03-25T21:24:56.997Z,4.37
2019-03-25T21:30:15.399Z,13.37
2019-03-25T21:35:37.444Z,3.23
2019-03-25T21:40:53.847Z,3.53
2019-03-25T21:46:10.517Z,2.93
2019-03-25T21:51:27.609Z,2.83
2019-03-25T21:56:51.108Z,3.23
2019-03-25T22:02:13.632Z,3.10
2019-03-25T22:07:36.603Z,6.03
2019-03-25T22:12:55.076Z,3.70
2019-03-25T22:18:16.625Z,3.13
2019-03-25T22:23:33.343Z,2.57
2019-03-25T22:28:52.517Z,1.97
2019-03-25T22:34:13.510Z,2.20
2019-03-25T22:39:30.280Z,3.60
2019-03-25T22:44:52.961Z,3.33
2019-03-25T22:50:11.605Z,2.40
2019-03-25T22:55:31.270Z,2.73
2019-03-25T23:00:49.768Z,2.53
2019-03-25T23:06:09.787Z,2.47
2019-03-25T23:11:26.437Z,3.57
2019-03-25T23:16:43.647Z,3.20
2019-03-25T23:22:10.737Z,3.33
2019-03-25T23:27:27.530Z,3.23
2019-03-25T23:32:44.339Z,4.10
2019-03-25T23:38:02.554Z,3.67
2019-03-25T23:43:22.549Z,3.40
2019-03-25T23:48:40.467Z,3.90
2019-03-25T23:54:12.391Z,4.90
2019-03-25T23:59:32.537Z,3.57
